createdAt,value
2019-02-19T00:01:02.073Z,49.20
2019-02-19T00:03:29.185Z,49.20
2019-02-19T00:05:56.321Z,49.20
2019-02-19T00:08:23.452Z,49.20
2019-02-19T00:10:50.543Z,49.20
2019-02-19T00:13:17.672Z,49.20
2019-02-19T00:15:44.795Z,49.20
2019-02-19T00:18:11.920Z,49.20
2019-02-19T00:20:39.042Z,49.20
2019-02-19T00:23:06.160Z,49.10
2019-02-19T00:25:33.278Z,49.50
2019-02-19T00:28:00.388Z,49.20
2019-02-19T00:30:27.511Z,49.10
2019-02-19T00:32:54.592Z,49.10
2019-02-19T00:35:21.665Z,49.10
2019-02-19T00:37:48.756Z,49.10
2019-02-19T00:40:15.862Z,49.10
2019-02-19T00:42:43.001Z,49.10
2019-02-19T00:45:16.503Z,49.10
2019-02-19T00:47:37.268Z,49.80
2019-02-19T00:50:04.697Z,49.10
2019-02-19T00:52:31.808Z,49.10
2019-02-19T00:54:58.938Z,49.10
2019-02-19T00:57:26.029Z,49.10
2019-02-19T00:59:53.167Z,49.10
2019-02-19T01:02:20.300Z,49.10
2019-02-19T01:04:47.457Z,49.20
2019-02-19T01:07:14.565Z,49.10
2019-02-19T01:09:41.668Z,49.10
2019-02-19T01:12:08.813Z,49.10
2019-02-19T01:14:35.946Z,49.10
2019-02-19T01:17:03.053Z,49.10
2019-02-19T01:19:30.131Z,49.10
2019-02-19T01:21:57.285Z,49.10
2019-02-19T01:24:24.387Z,49.10
2019-02-19T01:26:51.481Z,49.00
2019-02-19T01:29:18.569Z,49.10
2019-02-19T01:31:45.672Z,49.10
2019-02-19T01:34:12.768Z,49.10
2019-02-19T01:36:39.857Z,49.10
2019-02-19T01:39:06.930Z,49.10
2019-02-19T01:41:34.016Z,49.10
2019-02-19T01:44:01.100Z,49.00
2019-02-19T01:46:28.192Z,49.10
2019-02-19T01:48:55.277Z,49.10
2019-02-19T01:51:22.376Z,49.10
2019-02-19T01:53:49.499Z,49.10
2019-02-19T01:56:16.569Z,49.10
2019-02-19T01:58:43.627Z,49.00
2019-02-19T02:01:10.720Z,49.70
2019-02-19T02:03:37.820Z,49.00
2019-02-19T02:06:04.913Z,49.10
2019-02-19T02:08:31.999Z,49.00
2019-02-19T02:10:59.099Z,49.00
2019-02-19T02:13:26.216Z,49.10
2019-02-19T02:15:53.280Z,49.10
2019-02-19T02:18:20.373Z,49.00
2019-02-19T02:20:47.477Z,49.00
2019-02-19T02:23:14.580Z,49.00
2019-02-19T02:25:41.652Z,49.00
2019-02-19T02:28:08.743Z,49.00
2019-02-19T02:30:35.881Z,49.10
2019-02-19T02:33:02.952Z,49.20
2019-02-19T02:35:30.072Z,49.00
2019-02-19T02:37:57.193Z,49.00
2019-02-19T02:40:24.263Z,49.00
2019-02-19T02:42:51.340Z,49.00
2019-02-19T02:45:18.431Z,49.00
2019-02-19T02:47:45.514Z,49.00
2019-02-19T02:50:12.629Z,49.00
2019-02-19T02:52:39.729Z,49.00
2019-02-19T02:55:06.836Z,48.90
2019-02-19T02:57:33.933Z,49.00
2019-02-19T03:00:01.041Z,49.00
2019-02-19T03:02:28.117Z,49.00
2019-02-19T03:04:55.208Z,49.00
2019-02-19T03:07:29.533Z,49.00
2019-02-19T03:09:56.633Z,48.90
2019-02-19T03:12:23.702Z,48.90
2019-02-19T03:14:50.798Z,48.90
2019-02-19T03:17:17.934Z,48.90
2019-02-19T03:19:45.034Z,48.90
2019-02-19T03:22:12.129Z,48.90
2019-02-19T03:24:39.244Z,48.90
2019-02-19T03:27:06.353Z,48.90
2019-02-19T03:29:33.444Z,48.90
2019-02-19T03:32:00.542Z,48.90
2019-02-19T03:34:27.625Z,48.90
2019-02-19T03:36:54.719Z,48.90
2019-02-19T03:39:21.804Z,48.90
2019-02-19T03:41:48.894Z,48.90
2019-02-19T03:44:15.988Z,48.90
2019-02-19T03:46:43.111Z,48.90
2019-02-19T03:49:10.205Z,48.90
2019-02-19T03:51:37.272Z,48.90
2019-02-19T03:54:04.356Z,48.90
2019-02-19T03:56:31.435Z,48.90
2019-02-19T03:58:58.523Z,48.90
2019-02-19T04:01:25.602Z,48.90
2019-02-19T04:03:52.779Z,48.90
2019-02-19T04:06:19.901Z,48.90
2019-02-19T04:08:46.996Z,48.90
2019-02-19T04:11:14.077Z,48.90
2019-02-19T04:13:41.165Z,48.90
2019-02-19T04:16:08.265Z,48.90
2019-02-19T04:18:35.358Z,48.90
2019-02-19T04:21:02.473Z,48.90
2019-02-19T04:23:29.557Z,48.90
2019-02-19T04:25:56.680Z,48.90
2019-02-19T04:28:23.782Z,48.90
2019-02-19T04:30:50.868Z,48.90
2019-02-19T04:33:17.958Z,48.90
2019-02-19T04:35:45.053Z,48.90
2019-02-19T04:38:12.117Z,48.90
2019-02-19T04:40:39.261Z,48.90
2019-02-19T04:43:06.345Z,48.90
2019-02-19T04:45:33.438Z,48.90
2019-02-19T04:48:00.537Z,48.90
2019-02-19T04:50:27.613Z,48.90
2019-02-19T04:52:54.682Z,48.90
2019-02-19T04:55:21.778Z,48.90
2019-02-19T04:57:48.882Z,48.90
2019-02-19T05:00:15.969Z,48.90
2019-02-19T05:02:43.042Z,48.90
2019-02-19T05:05:10.117Z,48.90
2019-02-19T05:07:37.195Z,48.90
2019-02-19T05:10:04.357Z,48.80
2019-02-19T05:12:31.430Z,48.80
2019-02-19T05:14:58.555Z,48.80
2019-02-19T05:17:25.657Z,48.80
2019-02-19T05:19:52.720Z,48.80
2019-02-19T05:22:19.794Z,48.80
2019-02-19T05:24:46.884Z,48.90
2019-02-19T05:27:13.967Z,48.90
2019-02-19T05:29:41.042Z,48.90
2019-02-19T05:32:08.119Z,48.80
2019-02-19T05:34:35.208Z,48.90
2019-02-19T05:37:02.296Z,48.90
2019-02-19T05:39:29.389Z,48.90
2019-02-19T05:41:56.541Z,48.90
2019-02-19T05:44:23.630Z,48.90
2019-02-19T05:46:50.715Z,48.90
2019-02-19T05:49:17.800Z,48.80
2019-02-19T05:51:44.886Z,48.80
2019-02-19T05:54:11.982Z,48.90
2019-02-19T05:56:39.067Z,48.90
2019-02-19T05:59:06.178Z,48.90
2019-02-19T06:01:33.269Z,48.90
2019-02-19T06:04:00.369Z,48.90
2019-02-19T06:06:27.460Z,48.90
2019-02-19T06:08:54.550Z,48.90
2019-02-19T06:11:21.620Z,48.90
2019-02-19T06:13:48.747Z,48.90
2019-02-19T06:16:15.840Z,48.90
2019-02-19T06:18:42.928Z,48.90
2019-02-19T06:21:10.041Z,48.90
2019-02-19T06:23:37.131Z,48.90
2019-02-19T06:26:04.224Z,48.90
2019-02-19T06:28:31.296Z,48.90
2019-02-19T06:30:58.397Z,48.90
2019-02-19T06:33:25.513Z,48.90
2019-02-19T06:35:52.613Z,48.90
2019-02-19T06:38:19.692Z,48.80
2019-02-19T06:40:46.785Z,48.80
2019-02-19T06:43:13.867Z,48.80
2019-02-19T06:45:40.950Z,48.90
2019-02-19T06:48:08.040Z,48.80
2019-02-19T06:50:35.101Z,48.90
2019-02-19T06:53:02.169Z,48.80
2019-02-19T06:55:29.253Z,48.80
2019-02-19T06:57:56.369Z,48.90
2019-02-19T07:00:23.459Z,48.80
2019-02-19T07:02:56.136Z,48.90
2019-02-19T07:05:24.089Z,48.90
2019-02-19T07:07:51.170Z,48.90
2019-02-19T07:10:18.279Z,48.90
2019-02-19T07:12:45.382Z,48.90
2019-02-19T07:15:12.515Z,48.90
2019-02-19T07:17:39.556Z,48.90
2019-02-19T07:20:06.697Z,48.90
2019-02-19T07:22:33.805Z,48.80
2019-02-19T07:25:00.876Z,48.80
2019-02-19T07:27:27.971Z,48.80
2019-02-19T07:29:55.056Z,48.90
2019-02-19T07:32:22.179Z,48.80
2019-02-19T07:34:49.286Z,48.90
2019-02-19T07:37:16.396Z,48.80
2019-02-19T07:39:43.482Z,48.90
2019-02-19T07:42:10.570Z,48.90
2019-02-19T07:44:37.673Z,48.90
2019-02-19T07:47:04.765Z,48.90
2019-02-19T07:49:31.849Z,48.90
2019-02-19T07:51:58.965Z,48.90
2019-02-19T07:54:26.065Z,48.80
2019-02-19T07:56:53.160Z,48.80
2019-02-19T07:59:20.271Z,48.90
2019-02-19T08:01:47.373Z,48.90
2019-02-19T08:04:14.451Z,48.90
2019-02-19T08:06:41.524Z,48.90
2019-02-19T08:09:11.003Z,48.90
2019-02-19T08:11:38.117Z,48.90
2019-02-19T08:14:05.242Z,49.60
2019-02-19T08:16:32.329Z,48.90
2019-02-19T08:18:59.464Z,48.90
2019-02-19T08:21:26.537Z,48.90
2019-02-19T08:23:53.600Z,48.90
2019-02-19T08:26:20.693Z,48.90
2019-02-19T08:28:47.804Z,48.90
2019-02-19T08:31:14.896Z,48.90
2019-02-19T08:33:41.984Z,48.90
2019-02-19T08:36:09.070Z,48.90
2019-02-19T08:38:36.150Z,48.90
2019-02-19T08:41:03.248Z,48.90
2019-02-19T08:43:30.328Z,48.90
2019-02-19T08:45:57.440Z,48.90
2019-02-19T08:48:24.541Z,48.90
2019-02-19T08:50:51.612Z,49.00
2019-02-19T08:53:18.693Z,48.90
2019-02-19T08:55:45.822Z,48.90
2019-02-19T08:58:12.909Z,48.90
2019-02-19T09:00:40.009Z,48.90
2019-02-19T09:03:07.101Z,48.90
2019-02-19T09:05:34.150Z,49.00
2019-02-19T09:08:01.237Z,49.00
2019-02-19T09:10:28.305Z,49.00
2019-02-19T09:12:55.376Z,49.00
2019-02-19T09:15:22.462Z,49.00
2019-02-19T09:17:51.909Z,49.10
2019-02-19T09:20:16.661Z,49.70
2019-02-19T09:22:43.801Z,49.00
2019-02-19T09:25:10.868Z,49.10
2019-02-19T09:27:37.932Z,49.10
2019-02-19T09:30:05.972Z,49.10
2019-02-19T09:32:33.061Z,49.10
2019-02-19T09:35:00.306Z,49.20
2019-02-19T09:37:27.251Z,49.20
2019-02-19T09:39:54.336Z,49.20
2019-02-19T09:42:21.404Z,49.20
2019-02-19T09:44:48.512Z,49.20
2019-02-19T09:47:15.577Z,49.20
2019-02-19T09:49:42.663Z,49.20
2019-02-19T09:52:09.734Z,49.20
2019-02-19T09:54:36.809Z,49.20
2019-02-19T09:57:03.897Z,49.30
2019-02-19T09:59:30.968Z,49.30
2019-02-19T10:01:58.049Z,49.30
2019-02-19T10:04:25.122Z,49.30
2019-02-19T10:06:52.209Z,49.40
2019-02-19T10:09:19.289Z,49.30
2019-02-19T10:11:46.366Z,49.40
2019-02-19T10:14:13.436Z,49.40
2019-02-19T10:16:41.879Z,49.40
2019-02-19T10:19:07.627Z,49.40
2019-02-19T10:21:34.701Z,49.40
2019-02-19T10:24:01.802Z,49.50
2019-02-19T10:26:28.881Z,49.50
2019-02-19T10:28:55.949Z,49.50
2019-02-19T10:31:23.037Z,49.50
2019-02-19T10:33:50.162Z,49.50
2019-02-19T10:36:17.235Z,49.50
2019-02-19T10:38:44.324Z,49.50
2019-02-19T10:41:11.421Z,49.50
2019-02-19T10:43:38.480Z,49.50
2019-02-19T10:46:05.580Z,49.60
2019-02-19T10:48:32.644Z,49.60
2019-02-19T10:50:59.708Z,49.60
2019-02-19T10:53:26.800Z,49.60
2019-02-19T10:55:53.876Z,49.60
2019-02-19T10:58:23.139Z,49.60
2019-02-19T11:00:48.137Z,49.60
2019-02-19T11:03:15.205Z,49.70
2019-02-19T11:05:42.281Z,49.60
2019-02-19T11:08:09.392Z,49.70
2019-02-19T11:10:36.477Z,49.60
2019-02-19T11:13:03.548Z,49.70
2019-02-19T11:15:30.616Z,49.70
2019-02-19T11:17:57.695Z,49.70
2019-02-19T11:20:24.797Z,49.70
2019-02-19T11:22:51.896Z,49.80
2019-02-19T11:25:18.992Z,49.70
2019-02-19T11:27:46.097Z,49.80
2019-02-19T11:30:14.166Z,49.90
2019-02-19T11:32:41.237Z,49.80
2019-02-19T11:35:08.341Z,49.90
2019-02-19T11:37:37.309Z,49.90
2019-02-19T11:40:02.566Z,49.80
2019-02-19T11:42:29.653Z,49.90
2019-02-19T11:44:56.720Z,49.90
2019-02-19T11:47:26.558Z,49.90
2019-02-19T11:49:50.944Z,49.90
2019-02-19T11:52:18.031Z,50.00
2019-02-19T11:54:45.150Z,50.00
2019-02-19T11:57:12.234Z,50.00
2019-02-19T11:59:39.287Z,50.00
2019-02-19T12:02:10.213Z,50.00
2019-02-19T12:04:37.276Z,50.00
2019-02-19T12:07:04.360Z,50.00
2019-02-19T12:09:31.461Z,50.00
2019-02-19T12:11:58.552Z,50.00
2019-02-19T12:14:25.636Z,50.00
2019-02-19T12:16:52.721Z,50.00
2019-02-19T12:19:19.781Z,50.00
2019-02-19T12:21:46.874Z,50.00
2019-02-19T12:24:13.965Z,50.10
2019-02-19T12:26:41.042Z,50.10
2019-02-19T12:29:08.140Z,50.10
2019-02-19T12:31:35.222Z,50.10
2019-02-19T12:34:02.280Z,50.10
2019-02-19T12:36:29.368Z,50.10
2019-02-19T12:38:56.693Z,50.10
2019-02-19T12:41:23.776Z,50.10
2019-02-19T12:43:51.080Z,50.10
2019-02-19T12:46:17.941Z,50.20
2019-02-19T12:48:45.028Z,50.20
2019-02-19T12:51:12.167Z,50.10
2019-02-19T12:53:39.232Z,50.20
2019-02-19T12:56:06.305Z,50.20
2019-02-19T12:58:33.420Z,50.20
2019-02-19T13:01:00.505Z,50.20
2019-02-19T13:03:27.597Z,50.20
2019-02-19T13:05:54.745Z,50.20
2019-02-19T13:08:21.816Z,50.20
2019-02-19T13:10:48.900Z,50.20
2019-02-19T13:13:15.972Z,50.90
2019-02-19T13:15:43.073Z,50.20
2019-02-19T13:18:10.145Z,50.20
2019-02-19T13:20:37.235Z,50.20
2019-02-19T13:23:04.304Z,50.20
2019-02-19T13:25:31.391Z,50.20
2019-02-19T13:27:58.500Z,50.20
2019-02-19T13:30:25.573Z,50.20
2019-02-19T13:32:52.641Z,50.20
2019-02-19T13:35:19.732Z,50.30
2019-02-19T13:37:46.807Z,50.30
2019-02-19T13:40:13.906Z,50.30
2019-02-19T13:42:40.972Z,50.30
2019-02-19T13:45:09.222Z,50.30
2019-02-19T13:47:36.312Z,50.30
2019-02-19T13:50:03.685Z,50.30
2019-02-19T13:52:37.239Z,50.30
2019-02-19T13:55:09.305Z,50.30
2019-02-19T13:57:36.375Z,50.30
2019-02-19T14:00:03.765Z,50.30
2019-02-19T14:02:30.867Z,50.30
2019-02-19T14:04:57.967Z,50.20
2019-02-19T14:07:25.029Z,50.30
2019-02-19T14:09:52.099Z,50.30
2019-02-19T14:12:19.204Z,50.30
2019-02-19T14:14:50.383Z,50.30
2019-02-19T14:17:19.961Z,50.30
2019-02-19T14:20:01.574Z,50.20
2019-02-19T14:24:38.445Z,50.30
2019-02-19T14:27:10.177Z,50.30
2019-02-19T14:29:48.718Z,50.30
2019-02-19T14:32:51.205Z,50.20
2019-02-19T14:35:23.966Z,50.20
2019-02-19T14:39:57.808Z,50.20
2019-02-19T14:42:34.482Z,50.20
2019-02-19T14:45:08.130Z,50.20
2019-02-19T14:47:40.798Z,50.20
2019-02-19T14:50:13.648Z,50.20
2019-02-19T14:52:47.327Z,50.20
2019-02-19T14:55:25.981Z,50.20
2019-02-19T14:57:58.825Z,50.20
2019-02-19T15:00:32.484Z,50.20
2019-02-19T15:03:08.158Z,50.20
2019-02-19T15:05:41.864Z,50.10
2019-02-19T15:08:16.405Z,50.10
2019-02-19T15:10:50.053Z,50.10
2019-02-19T15:13:22.940Z,50.10
2019-02-19T15:15:54.720Z,50.10
2019-02-19T15:18:29.248Z,50.10
2019-02-19T15:21:00.981Z,50.10
2019-02-19T15:23:34.660Z,50.10
2019-02-19T15:28:09.460Z,50.10
2019-02-19T15:30:44.117Z,50.10
2019-02-19T15:33:17.757Z,50.20
2019-02-19T15:36:20.337Z,50.20
2019-02-19T15:38:53.090Z,50.10
2019-02-19T15:41:27.780Z,50.10
2019-02-19T15:44:00.300Z,50.10
2019-02-19T15:46:32.009Z,50.20
2019-02-19T15:49:04.803Z,50.10
2019-02-19T15:51:37.480Z,50.70
2019-02-19T15:54:09.193Z,50.00
2019-02-19T15:56:42.773Z,50.00
2019-02-19T15:59:18.410Z,50.00
2019-02-19T16:02:53.175Z,50.10
2019-02-19T16:05:24.907Z,50.10
2019-02-19T16:07:56.792Z,50.00
2019-02-19T16:10:28.509Z,50.00
2019-02-19T16:13:04.268Z,50.10
2019-02-19T16:15:36.898Z,50.10
2019-02-19T16:18:09.557Z,50.00
2019-02-19T16:20:42.304Z,50.00
2019-02-19T16:23:15.081Z,50.00
2019-02-19T16:25:50.776Z,50.00
2019-02-19T16:28:23.460Z,50.00
2019-02-19T16:30:56.213Z,50.10
2019-02-19T16:33:33.853Z,50.00
2019-02-19T16:36:06.516Z,50.00
2019-02-19T16:38:41.053Z,49.90
2019-02-19T16:41:15.730Z,50.00
2019-02-19T16:43:50.225Z,50.00
2019-02-19T16:46:23.101Z,50.00
2019-02-19T16:50:06.857Z,49.90
2019-02-19T16:52:30.671Z,49.90
2019-02-19T16:55:03.359Z,50.00
2019-02-19T16:57:36.173Z,49.90
2019-02-19T17:00:10.687Z,50.50
2019-02-19T17:02:42.417Z,49.90
2019-02-19T17:05:14.941Z,49.90
2019-02-19T17:07:46.693Z,49.90
2019-02-19T17:10:34.329Z,49.80
2019-02-19T17:13:06.085Z,49.90
2019-02-19T17:15:37.825Z,49.80
2019-02-19T17:18:11.504Z,49.80
2019-02-19T17:20:43.225Z,49.80
2019-02-19T17:23:18.066Z,49.80
2019-02-19T17:25:57.776Z,49.80
2019-02-19T17:28:33.478Z,49.80
2019-02-19T17:31:09.073Z,49.80
2019-02-19T17:33:42.559Z,49.90
2019-02-19T17:36:17.203Z,49.80
2019-02-19T17:38:48.981Z,49.80
2019-02-19T17:41:21.495Z,49.80
2019-02-19T17:43:54.209Z,49.80
2019-02-19T17:46:27.908Z,49.90
2019-02-19T17:48:59.862Z,49.80
2019-02-19T17:51:32.761Z,49.80
2019-02-19T17:54:05.306Z,49.80
2019-02-19T17:56:40.925Z,49.80
2019-02-19T17:59:13.673Z,49.90
2019-02-19T18:01:46.340Z,49.80
2019-02-19T18:04:19.045Z,49.80
2019-02-19T18:06:51.572Z,49.80
2019-02-19T18:09:24.408Z,49.80
2019-02-19T18:11:56.131Z,49.80
2019-02-19T18:14:33.763Z,49.80
2019-02-19T18:17:06.437Z,49.80
2019-02-19T18:19:33.540Z,49.80
2019-02-19T18:22:00.626Z,49.80
2019-02-19T18:24:27.735Z,49.70
2019-02-19T18:26:54.878Z,49.70
2019-02-19T18:29:21.955Z,49.80
2019-02-19T18:31:49.051Z,49.80
2019-02-19T18:34:16.157Z,49.80
2019-02-19T18:36:43.238Z,49.80
2019-02-19T18:39:10.296Z,49.80
2019-02-19T18:41:37.397Z,49.80
2019-02-19T18:44:04.469Z,49.70
2019-02-19T18:46:31.552Z,49.80
2019-02-19T18:48:58.659Z,49.70
2019-02-19T18:51:25.747Z,49.70
2019-02-19T18:53:52.858Z,49.80
2019-02-19T18:56:19.954Z,49.80
2019-02-19T18:58:47.024Z,49.80
2019-02-19T19:01:14.113Z,49.80
2019-02-19T19:03:41.209Z,49.80
2019-02-19T19:06:08.326Z,49.80
2019-02-19T19:08:35.408Z,49.70
2019-02-19T19:11:02.521Z,49.70
2019-02-19T19:13:29.603Z,49.80
2019-02-19T19:15:56.713Z,49.70
2019-02-19T19:18:23.812Z,49.80
2019-02-19T19:20:50.934Z,49.70
2019-02-19T19:23:18.025Z,49.70
2019-02-19T19:25:45.107Z,49.80
2019-02-19T19:28:12.185Z,49.70
2019-02-19T19:30:39.295Z,49.70
2019-02-19T19:33:06.365Z,49.70
2019-02-19T19:35:33.457Z,49.80
2019-02-19T19:38:00.563Z,49.80
2019-02-19T19:40:27.676Z,49.80
2019-02-19T19:42:54.748Z,49.90
2019-02-19T19:45:21.836Z,50.00
2019-02-19T19:47:48.954Z,50.00
2019-02-19T19:50:16.026Z,50.00
2019-02-19T19:52:43.113Z,50.10
2019-02-19T19:55:10.219Z,50.10
2019-02-19T19:57:37.339Z,50.20
2019-02-19T20:00:04.732Z,50.20
2019-02-19T20:02:31.839Z,50.20
2019-02-19T20:04:58.949Z,50.30
2019-02-19T20:07:26.035Z,50.20
2019-02-19T20:09:53.113Z,50.30
2019-02-19T20:12:20.211Z,50.30
2019-02-19T20:14:47.306Z,50.30
2019-02-19T20:17:14.389Z,50.40
2019-02-19T20:19:41.469Z,50.40
2019-02-19T20:22:08.553Z,50.40
2019-02-19T20:24:35.649Z,50.40
2019-02-19T20:27:02.797Z,50.40
2019-02-19T20:29:29.882Z,50.40
2019-02-19T20:31:56.978Z,50.40
2019-02-19T20:34:24.070Z,50.40
2019-02-19T20:36:51.175Z,50.40
2019-02-19T20:39:18.274Z,50.40
2019-02-19T20:41:45.387Z,50.50
2019-02-19T20:44:12.481Z,50.50
2019-02-19T20:46:39.582Z,50.50
2019-02-19T20:49:06.670Z,50.50
2019-02-19T20:51:36.387Z,50.60
2019-02-19T20:54:00.848Z,50.50
2019-02-19T20:56:27.939Z,50.60
2019-02-19T20:58:55.031Z,50.50
2019-02-19T21:01:22.113Z,50.60
2019-02-19T21:03:49.205Z,50.60
2019-02-19T21:06:16.270Z,50.60
2019-02-19T21:08:43.373Z,50.70
2019-02-19T21:11:10.482Z,50.70
2019-02-19T21:13:37.545Z,50.70
2019-02-19T21:16:04.652Z,50.70
2019-02-19T21:18:31.741Z,50.70
2019-02-19T21:20:58.852Z,50.70
2019-02-19T21:23:25.982Z,50.70
2019-02-19T21:25:53.073Z,50.70
2019-02-19T21:28:20.171Z,50.80
2019-02-19T21:30:47.263Z,50.80
2019-02-19T21:33:14.352Z,50.80
2019-02-19T21:35:41.467Z,50.80
2019-02-19T21:38:08.544Z,50.80
2019-02-19T21:40:35.629Z,50.80
2019-02-19T21:43:02.712Z,50.80
2019-02-19T21:45:29.808Z,50.90
2019-02-19T21:47:56.905Z,50.90
2019-02-19T21:50:24.009Z,50.90
2019-02-19T21:52:51.116Z,50.90
2019-02-19T21:55:18.209Z,50.80
2019-02-19T21:57:45.338Z,50.90
2019-02-19T22:00:13.472Z,50.90
2019-02-19T22:02:40.544Z,50.90
2019-02-19T22:05:07.645Z,50.90
2019-02-19T22:07:34.730Z,50.90
2019-02-19T22:10:01.820Z,50.90
2019-02-19T22:12:28.904Z,50.90
2019-02-19T22:14:55.978Z,50.90
2019-02-19T22:17:23.101Z,50.90
2019-02-19T22:19:50.187Z,50.90
2019-02-19T22:22:19.330Z,50.90
2019-02-19T22:24:46.405Z,50.90
2019-02-19T22:27:13.497Z,50.90
2019-02-19T22:29:40.588Z,50.90
2019-02-19T22:32:07.876Z,50.90
2019-02-19T22:34:36.586Z,50.90
2019-02-19T22:37:02.098Z,50.90
2019-02-19T22:39:29.197Z,50.90
2019-02-19T22:41:56.289Z,50.90
2019-02-19T22:44:23.377Z,50.90
2019-02-19T22:46:50.501Z,50.90
2019-02-19T22:49:17.585Z,50.90
2019-02-19T22:51:44.669Z,50.90
2019-02-19T22:54:18.444Z,50.90
2019-02-19T22:56:46.250Z,50.90
2019-02-19T22:59:13.333Z,50.90
2019-02-19T23:01:44.384Z,50.90
2019-02-19T23:04:11.473Z,50.90
2019-02-19T23:06:38.564Z,50.90
2019-02-19T23:09:06.001Z,51.00
2019-02-19T23:11:33.093Z,50.90
2019-02-19T23:14:00.201Z,50.90
2019-02-19T23:16:27.268Z,50.90
2019-02-19T23:18:54.338Z,50.90
2019-02-19T23:21:21.401Z,50.90
2019-02-19T23:23:48.509Z,50.90
2019-02-19T23:26:15.589Z,50.90
2019-02-19T23:28:42.681Z,50.90
2019-02-19T23:31:09.760Z,50.90
2019-02-19T23:33:36.832Z,50.90
2019-02-19T23:36:14.150Z,51.00
2019-02-19T23:38:41.223Z,50.90
2019-02-19T23:41:08.311Z,50.90
2019-02-19T23:43:35.404Z,51.00
2019-02-19T23:46:02.499Z,51.00
2019-02-19T23:48:29.608Z,51.00
2019-02-19T23:50:56.718Z,51.00
2019-02-19T23:53:23.804Z,51.00
2019-02-19T23:55:50.892Z,51.00
2019-02-19T23:58:17.984Z,51.00
